createdAt,value
2023-05-14T00:00:50.621Z,26.97
2023-05-14T00:01:50.643Z,26.99
2023-05-14T00:02:50.683Z,27.03
2023-05-14T00:03:50.758Z,27.00
2023-05-14T00:04:50.610Z,27.06
2023-05-14T00:05:50.621Z,26.97
2023-05-14T00:06:50.613Z,26.92
2023-05-14T00:07:50.649Z,27.00
2023-05-14T00:08:50.613Z,27.00
2023-05-14T00:09:50.622Z,26.92
2023-05-14T00:10:50.615Z,27.02
2023-05-14T00:11:50.617Z,26.97
2023-05-14T00:12:50.611Z,27.06
2023-05-14T00:13:50.624Z,26.97
2023-05-14T00:14:50.611Z,27.00
2023-05-14T00:15:50.696Z,26.97
2023-05-14T00:16:50.622Z,27.04
2023-05-14T00:17:50.667Z,26.94
2023-05-14T00:18:50.638Z,26.94
2023-05-14T00:19:50.620Z,26.91
2023-05-14T00:20:50.613Z,27.03
2023-05-14T00:21:50.624Z,26.95
2023-05-14T00:22:50.610Z,27.04
2023-05-14T00:23:50.650Z,26.97
2023-05-14T00:24:50.622Z,27.02
2023-05-14T00:25:50.620Z,26.99
2023-05-14T00:26:50.620Z,26.95
2023-05-14T00:27:50.618Z,26.91
2023-05-14T00:28:50.610Z,26.94
2023-05-14T00:29:50.628Z,26.95
2023-05-14T00:30:50.621Z,27.02
2023-05-14T00:31:50.685Z,26.94
2023-05-14T00:32:50.686Z,26.92
2023-05-14T00:33:50.627Z,26.99
2023-05-14T00:34:50.613Z,26.95
2023-05-14T00:35:50.617Z,26.99
2023-05-14T00:36:50.612Z,27.07
2023-05-14T00:37:50.626Z,26.97
2023-05-14T00:38:50.612Z,26.97
2023-05-14T00:39:50.643Z,26.92
2023-05-14T00:40:50.613Z,26.99
2023-05-14T00:41:50.618Z,26.97
2023-05-14T00:42:50.609Z,26.95
2023-05-14T00:43:50.616Z,26.99
2023-05-14T00:44:50.610Z,26.99
2023-05-14T00:45:50.629Z,27.00
2023-05-14T00:46:50.678Z,26.95
2023-05-14T00:47:50.650Z,27.00
2023-05-14T00:48:50.627Z,26.97
2023-05-14T00:49:50.622Z,26.99
2023-05-14T00:50:50.607Z,27.00
2023-05-14T00:51:50.616Z,26.95
2023-05-14T00:52:50.615Z,27.03
2023-05-14T00:53:50.694Z,26.99
2023-05-14T00:54:50.609Z,26.97
2023-05-14T00:55:50.636Z,26.97
2023-05-14T00:56:50.623Z,27.00
2023-05-14T00:57:50.627Z,27.04
2023-05-14T00:58:50.610Z,26.99
2023-05-14T00:59:50.619Z,26.97
2023-05-14T01:00:50.644Z,26.97
2023-05-14T01:01:50.613Z,27.04
2023-05-14T01:02:50.788Z,27.00
2023-05-14T01:03:50.727Z,26.97
2023-05-14T01:04:50.630Z,26.95
2023-05-14T01:05:50.613Z,26.97
2023-05-14T01:06:50.606Z,27.07
2023-05-14T01:07:50.628Z,27.00
2023-05-14T01:08:50.606Z,26.97
2023-05-14T01:09:50.616Z,26.97
2023-05-14T01:10:50.611Z,27.00
2023-05-14T01:11:50.634Z,26.97
2023-05-14T01:12:50.606Z,26.95
2023-05-14T01:13:50.614Z,26.95
2023-05-14T01:14:50.605Z,27.00
2023-05-14T01:15:50.615Z,26.95
2023-05-14T01:16:50.741Z,27.06
2023-05-14T01:17:50.664Z,27.06
2023-05-14T01:18:50.660Z,26.95
2023-05-14T01:19:50.621Z,27.04
2023-05-14T01:20:50.606Z,27.02
2023-05-14T01:21:50.615Z,27.07
2023-05-14T01:22:50.615Z,27.06
2023-05-14T01:23:50.625Z,26.97
2023-05-14T01:24:50.604Z,26.91
2023-05-14T01:25:50.634Z,26.95
2023-05-14T01:26:50.606Z,27.02
2023-05-14T01:27:50.645Z,27.02
2023-05-14T01:28:50.607Z,27.03
2023-05-14T01:29:50.613Z,26.97
2023-05-14T01:30:50.646Z,27.00
2023-05-14T01:31:50.660Z,27.07
2023-05-14T01:32:50.621Z,27.03
2023-05-14T01:33:50.615Z,26.95
2023-05-14T01:34:50.610Z,27.06
2023-05-14T01:35:50.605Z,26.91
2023-05-14T01:36:50.610Z,27.03
2023-05-14T01:37:50.602Z,27.03
2023-05-14T01:38:50.613Z,27.07
2023-05-14T01:39:50.607Z,26.95
2023-05-14T01:40:50.610Z,27.00
2023-05-14T01:41:50.607Z,27.06
2023-05-14T01:42:50.672Z,27.06
2023-05-14T01:43:50.621Z,27.06
2023-05-14T01:44:50.611Z,27.06
2023-05-14T01:45:50.676Z,26.95
2023-05-14T01:46:50.606Z,26.92
2023-05-14T01:47:50.670Z,27.06
2023-05-14T01:48:50.613Z,27.03
2023-05-14T01:49:50.600Z,27.04
2023-05-14T01:50:50.612Z,27.02
2023-05-14T01:51:50.603Z,27.03
2023-05-14T01:52:50.608Z,27.06
2023-05-14T01:53:50.606Z,26.97
2023-05-14T01:54:50.607Z,27.03
2023-05-14T01:55:50.598Z,27.07
2023-05-14T01:56:50.607Z,27.03
2023-05-14T01:57:50.600Z,26.99
2023-05-14T01:58:50.605Z,27.04
2023-05-14T01:59:50.622Z,27.02
2023-05-14T02:00:50.615Z,26.99
2023-05-14T02:01:50.622Z,26.97
2023-05-14T02:02:50.651Z,26.97
2023-05-14T02:03:50.689Z,26.97
2023-05-14T02:04:50.604Z,26.94
2023-05-14T02:05:50.597Z,26.91
2023-05-14T02:06:50.604Z,27.02
2023-05-14T02:07:50.596Z,26.95
2023-05-14T02:08:50.606Z,27.03
2023-05-14T02:09:50.597Z,27.06
2023-05-14T02:10:50.602Z,27.00
2023-05-14T02:11:50.607Z,26.94
2023-05-14T02:12:50.601Z,26.95
2023-05-14T02:13:50.605Z,26.91
2023-05-14T02:14:50.624Z,26.95
2023-05-14T02:15:50.707Z,26.94
2023-05-14T02:16:50.608Z,27.00
2023-05-14T02:17:50.646Z,26.97
2023-05-14T02:18:50.711Z,26.97
2023-05-14T02:19:50.601Z,27.06
2023-05-14T02:20:50.623Z,27.00
2023-05-14T02:21:50.602Z,27.03
2023-05-14T02:22:50.605Z,27.03
2023-05-14T02:23:50.597Z,26.97
2023-05-14T02:24:50.607Z,26.97
2023-05-14T02:25:50.597Z,27.07
2023-05-14T02:26:50.605Z,26.97
2023-05-14T02:27:50.598Z,27.06
2023-05-14T02:28:50.622Z,27.00
2023-05-14T02:29:50.598Z,27.00
2023-05-14T02:30:50.611Z,26.97
2023-05-14T02:31:50.646Z,27.02
2023-05-14T02:32:50.671Z,27.00
2023-05-14T02:33:50.602Z,27.06
2023-05-14T02:34:50.618Z,27.02
2023-05-14T02:35:50.601Z,27.03
2023-05-14T02:36:50.619Z,26.99
2023-05-14T02:37:50.599Z,26.99
2023-05-14T02:38:50.602Z,27.06
2023-05-14T02:39:50.612Z,27.03
2023-05-14T02:40:50.607Z,27.00
2023-05-14T02:41:50.611Z,27.02
2023-05-14T02:42:50.607Z,27.00
2023-05-14T02:43:50.603Z,27.02
2023-05-14T02:44:50.611Z,26.95
2023-05-14T02:45:50.597Z,27.00
2023-05-14T02:46:50.645Z,26.95
2023-05-14T02:47:50.668Z,27.00
2023-05-14T02:48:50.605Z,26.97
2023-05-14T02:49:50.606Z,26.97
2023-05-14T02:50:50.617Z,26.94
2023-05-14T02:51:50.595Z,27.03
2023-05-14T02:52:50.603Z,26.99
2023-05-14T02:53:50.603Z,26.95
2023-05-14T02:54:50.608Z,27.00
2023-05-14T02:55:50.599Z,26.92
2023-05-14T02:56:50.608Z,27.04
2023-05-14T02:57:50.612Z,27.06
2023-05-14T02:58:50.605Z,27.04
2023-05-14T02:59:50.600Z,27.00
2023-05-14T03:00:50.642Z,27.00
2023-05-14T03:01:50.612Z,26.95
2023-05-14T03:02:50.770Z,26.95
2023-05-14T03:03:50.620Z,27.07
2023-05-14T03:04:50.613Z,26.95
2023-05-14T03:05:50.598Z,26.92
2023-05-14T03:06:50.605Z,26.95
2023-05-14T03:07:50.599Z,27.07
2023-05-14T03:08:50.613Z,26.95
2023-05-14T03:09:50.618Z,26.97
2023-05-14T03:10:50.605Z,26.95
2023-05-14T03:11:50.595Z,26.99
2023-05-14T03:12:50.605Z,27.07
2023-05-14T03:13:50.608Z,27.00
2023-05-14T03:14:50.609Z,27.00
2023-05-14T03:15:50.598Z,27.02
2023-05-14T03:16:50.628Z,27.02
2023-05-14T03:17:50.664Z,26.95
2023-05-14T03:18:50.664Z,26.92
2023-05-14T03:19:50.638Z,27.00
2023-05-14T03:20:50.609Z,26.97
2023-05-14T03:21:50.598Z,26.99
2023-05-14T03:22:50.601Z,27.00
2023-05-14T03:23:50.598Z,27.03
2023-05-14T03:24:50.602Z,27.00
2023-05-14T03:25:50.597Z,26.95
2023-05-14T03:26:50.608Z,27.00
2023-05-14T03:27:50.615Z,27.06
2023-05-14T03:28:50.609Z,26.99
2023-05-14T03:29:50.630Z,27.03
2023-05-14T03:30:50.618Z,26.99
2023-05-14T03:31:50.607Z,27.00
2023-05-14T03:32:50.651Z,27.04
2023-05-14T03:33:50.610Z,27.06
2023-05-14T03:34:50.605Z,26.94
2023-05-14T03:35:50.615Z,26.92
2023-05-14T03:36:50.612Z,26.99
2023-05-14T03:37:50.592Z,27.09
2023-05-14T03:38:50.604Z,27.02
2023-05-14T03:39:50.595Z,26.97
2023-05-14T03:40:50.602Z,27.04
2023-05-14T03:41:50.598Z,26.94
2023-05-14T03:42:50.601Z,27.03
2023-05-14T03:43:50.593Z,26.97
2023-05-14T03:44:50.609Z,27.04
2023-05-14T03:45:50.594Z,26.97
2023-05-14T03:46:50.604Z,27.03
2023-05-14T03:47:50.676Z,27.02
2023-05-14T03:48:50.630Z,27.03
2023-05-14T03:49:50.597Z,27.06
2023-05-14T03:50:50.600Z,26.99
2023-05-14T03:51:50.626Z,27.00
2023-05-14T03:52:50.600Z,26.99
2023-05-14T03:53:50.596Z,27.00
2023-05-14T03:54:50.600Z,26.97
2023-05-14T03:55:50.604Z,27.02
2023-05-14T03:56:50.612Z,26.99
2023-05-14T03:57:50.599Z,27.07
2023-05-14T03:58:50.600Z,27.02
2023-05-14T03:59:50.609Z,26.92
2023-05-14T04:00:50.601Z,27.06
2023-05-14T04:01:50.597Z,26.94
2023-05-14T04:02:50.730Z,27.03
2023-05-14T04:03:50.692Z,26.99
2023-05-14T04:04:50.662Z,26.94
2023-05-14T04:05:50.593Z,27.00
2023-05-14T04:06:50.603Z,27.02
2023-05-14T04:07:50.618Z,26.97
2023-05-14T04:08:50.600Z,26.92
2023-05-14T04:09:50.595Z,26.95
2023-05-14T04:10:50.600Z,27.04
2023-05-14T04:11:50.597Z,27.07
2023-05-14T04:12:50.603Z,27.06
2023-05-14T04:13:50.592Z,27.02
2023-05-14T04:14:50.602Z,27.00
2023-05-14T04:15:50.618Z,27.00
2023-05-14T04:16:50.618Z,27.02
2023-05-14T04:17:50.615Z,26.94
2023-05-14T04:18:50.628Z,26.95
2023-05-14T04:19:50.592Z,26.89
2023-05-14T04:20:50.602Z,26.92
2023-05-14T04:21:50.597Z,26.95
2023-05-14T04:22:50.598Z,26.94
2023-05-14T04:23:50.629Z,26.94
2023-05-14T04:24:50.600Z,26.94
2023-05-14T04:25:50.592Z,26.94
2023-05-14T04:26:50.600Z,26.99
2023-05-14T04:27:50.594Z,26.92
2023-05-14T04:28:50.601Z,26.94
2023-05-14T04:29:50.609Z,26.97
2023-05-14T04:30:50.604Z,26.91
2023-05-14T04:31:50.620Z,26.94
2023-05-14T04:32:50.654Z,26.91
2023-05-14T04:33:50.590Z,26.92
2023-05-14T04:34:50.597Z,26.97
2023-05-14T04:35:50.596Z,26.88
2023-05-14T04:36:50.597Z,26.91
2023-05-14T04:37:50.597Z,26.92
2023-05-14T04:38:50.593Z,26.84
2023-05-14T04:39:50.609Z,26.81
2023-05-14T04:40:50.592Z,26.85
2023-05-14T04:41:50.584Z,26.88
2023-05-14T04:42:50.605Z,26.85
2023-05-14T04:43:50.586Z,26.82
2023-05-14T04:44:50.588Z,26.76
2023-05-14T04:45:50.609Z,26.82
2023-05-14T04:46:50.603Z,26.75
2023-05-14T04:47:50.670Z,26.77
2023-05-14T04:48:50.593Z,26.80
2023-05-14T04:49:50.598Z,26.69
2023-05-14T04:50:50.588Z,26.81
2023-05-14T04:51:50.583Z,26.75
2023-05-14T04:52:50.591Z,26.84
2023-05-14T04:53:50.598Z,26.73
2023-05-14T04:54:50.608Z,26.69
2023-05-14T04:55:50.619Z,26.72
2023-05-14T04:56:50.587Z,26.72
2023-05-14T04:57:50.577Z,26.70
2023-05-14T04:58:50.591Z,26.75
2023-05-14T04:59:50.588Z,26.73
2023-05-14T05:00:50.625Z,26.73
2023-05-14T05:01:50.583Z,26.72
2023-05-14T05:02:50.590Z,26.72
2023-05-14T05:03:50.602Z,26.70
2023-05-14T05:04:50.587Z,26.77
2023-05-14T05:05:50.583Z,26.75
2023-05-14T05:06:50.591Z,26.72
2023-05-14T05:07:50.583Z,26.70
2023-05-14T05:08:50.588Z,26.65
2023-05-14T05:09:50.609Z,26.73
2023-05-14T05:10:50.596Z,26.70
2023-05-14T05:11:50.606Z,26.72
2023-05-14T05:12:50.588Z,26.60
2023-05-14T05:13:50.580Z,26.73
2023-05-14T05:14:50.588Z,26.72
2023-05-14T05:15:50.609Z,26.63
2023-05-14T05:16:50.587Z,26.67
2023-05-14T05:17:50.640Z,26.72
2023-05-14T05:18:50.620Z,26.63
2023-05-14T05:19:50.592Z,26.73
2023-05-14T05:20:50.588Z,26.65
2023-05-14T05:21:50.578Z,26.57
2023-05-14T05:22:50.587Z,26.69
2023-05-14T05:23:50.588Z,26.70
2023-05-14T05:24:50.592Z,26.70
2023-05-14T05:25:50.581Z,26.72
2023-05-14T05:26:50.592Z,26.70
2023-05-14T05:27:50.624Z,26.73
2023-05-14T05:28:50.593Z,26.63
2023-05-14T05:29:50.588Z,26.70
2023-05-14T05:30:50.587Z,26.70
2023-05-14T05:31:50.623Z,26.58
2023-05-14T05:32:50.640Z,26.72
2023-05-14T05:33:50.586Z,26.70
2023-05-14T05:34:50.581Z,26.73
2023-05-14T05:35:50.577Z,26.69
2023-05-14T05:36:50.583Z,26.65
2023-05-14T05:37:50.573Z,26.63
2023-05-14T05:38:50.579Z,26.69
2023-05-14T05:39:50.572Z,26.63
2023-05-14T05:40:50.580Z,26.72
2023-05-14T05:41:50.585Z,26.65
2023-05-14T05:42:50.581Z,26.70
2023-05-14T05:43:50.596Z,26.67
2023-05-14T05:44:50.589Z,26.63
2023-05-14T05:45:50.572Z,26.62
2023-05-14T05:46:50.664Z,26.66
2023-05-14T05:47:50.712Z,26.60
2023-05-14T05:48:50.582Z,26.60
2023-05-14T05:49:50.565Z,26.75
2023-05-14T05:50:50.567Z,26.60
2023-05-14T05:51:50.582Z,26.75
2023-05-14T05:52:50.569Z,26.73
2023-05-14T05:53:50.573Z,26.72
2023-05-14T05:54:50.571Z,26.76
2023-05-14T05:55:50.572Z,26.75
2023-05-14T05:56:50.566Z,26.69
2023-05-14T05:57:50.573Z,26.76
2023-05-14T05:58:50.564Z,26.75
2023-05-14T05:59:50.601Z,26.70
2023-05-14T06:00:50.572Z,26.70
2023-05-14T06:01:50.621Z,26.75
2023-05-14T06:02:50.604Z,26.72
2023-05-14T06:03:50.573Z,26.75
2023-05-14T06:04:50.595Z,26.73
2023-05-14T06:05:50.651Z,26.73
2023-05-14T06:06:50.571Z,26.77
2023-05-14T06:07:50.582Z,26.72
2023-05-14T06:08:50.568Z,26.80
2023-05-14T06:09:50.574Z,26.70
2023-05-14T06:10:50.561Z,26.75
2023-05-14T06:11:50.581Z,26.76
2023-05-14T06:12:50.595Z,26.72
2023-05-14T06:13:50.571Z,26.72
2023-05-14T06:14:50.564Z,26.81
2023-05-14T06:15:50.589Z,26.75
2023-05-14T06:16:50.679Z,26.73
2023-05-14T06:17:50.605Z,26.73
2023-05-14T06:18:50.600Z,26.67
2023-05-14T06:19:50.569Z,26.67
2023-05-14T06:20:50.562Z,26.82
2023-05-14T06:21:50.569Z,26.67
2023-05-14T06:22:50.565Z,26.82
2023-05-14T06:23:50.567Z,26.77
2023-05-14T06:24:50.560Z,26.72
2023-05-14T06:25:50.845Z,26.81
2023-05-14T06:26:50.559Z,26.72
2023-05-14T06:27:50.571Z,26.76
2023-05-14T06:28:50.562Z,26.81
2023-05-14T06:29:50.567Z,26.81
2023-05-14T06:30:50.629Z,26.88
2023-05-14T06:31:50.632Z,26.81
2023-05-14T06:32:50.625Z,26.77
2023-05-14T06:33:50.565Z,26.85
2023-05-14T06:34:50.560Z,26.89
2023-05-14T06:35:50.564Z,26.82
2023-05-14T06:36:50.560Z,26.80
2023-05-14T06:37:50.564Z,26.81
2023-05-14T06:38:50.557Z,26.82
2023-05-14T06:39:50.572Z,26.82
2023-05-14T06:40:50.555Z,26.73
2023-05-14T06:41:50.566Z,26.89
2023-05-14T06:42:50.552Z,26.81
2023-05-14T06:43:50.569Z,26.70
2023-05-14T06:44:50.558Z,26.76
2023-05-14T06:45:50.568Z,26.81
2023-05-14T06:46:50.556Z,26.80
2023-05-14T06:47:50.704Z,26.85
2023-05-14T06:48:50.637Z,26.80
2023-05-14T06:49:50.564Z,26.87
2023-05-14T06:50:50.553Z,26.85
2023-05-14T06:51:50.564Z,26.80
2023-05-14T06:52:50.554Z,26.76
2023-05-14T06:53:50.560Z,26.77
2023-05-14T06:54:50.551Z,26.81
2023-05-14T06:55:50.559Z,26.82
2023-05-14T06:56:50.555Z,26.76
2023-05-14T06:57:50.564Z,26.81
2023-05-14T06:58:50.551Z,26.76
2023-05-14T06:59:50.561Z,26.85
2023-05-14T07:00:50.551Z,26.77
2023-05-14T07:01:50.693Z,26.82
2023-05-14T07:02:50.602Z,26.80
2023-05-14T07:03:50.644Z,26.77
2023-05-14T07:04:50.559Z,26.76
2023-05-14T07:05:50.557Z,26.82
2023-05-14T07:06:50.552Z,26.80
2023-05-14T07:07:50.557Z,26.72
2023-05-14T07:08:50.551Z,26.82
2023-05-14T07:09:50.557Z,26.77
2023-05-14T07:10:50.562Z,26.85
2023-05-14T07:11:50.559Z,26.76
2023-05-14T07:12:50.546Z,26.87
2023-05-14T07:13:50.556Z,26.76
2023-05-14T07:14:50.557Z,26.82
2023-05-14T07:15:50.557Z,26.84
2023-05-14T07:16:50.579Z,26.82
2023-05-14T07:17:50.585Z,26.82
2023-05-14T07:18:50.617Z,26.80
2023-05-14T07:19:50.588Z,26.84
2023-05-14T07:20:50.548Z,26.75
2023-05-14T07:21:50.560Z,26.82
2023-05-14T07:22:50.549Z,26.88
2023-05-14T07:23:50.571Z,26.84
2023-05-14T07:24:50.548Z,26.91
2023-05-14T07:25:50.553Z,26.81
2023-05-14T07:26:50.550Z,26.85
2023-05-14T07:27:50.569Z,26.85
2023-05-14T07:28:50.558Z,26.76
2023-05-14T07:29:50.564Z,26.87
2023-05-14T07:30:50.549Z,26.84
2023-05-14T07:31:50.591Z,26.85
2023-05-14T07:32:50.586Z,26.92
2023-05-14T07:33:50.556Z,26.84
2023-05-14T07:34:50.551Z,26.88
2023-05-14T07:35:50.585Z,26.84
2023-05-14T07:36:50.545Z,26.82
2023-05-14T07:37:50.552Z,26.88
2023-05-14T07:38:50.543Z,26.88
2023-05-14T07:39:50.553Z,26.87
2023-05-14T07:40:50.562Z,26.77
2023-05-14T07:41:50.552Z,26.87
2023-05-14T07:42:50.544Z,26.88
2023-05-14T07:43:50.553Z,26.87
2023-05-14T07:44:50.544Z,26.84
2023-05-14T07:45:50.556Z,26.81
2023-05-14T07:46:50.579Z,26.89
2023-05-14T07:47:50.665Z,26.92
2023-05-14T07:48:50.542Z,26.85
2023-05-14T07:49:50.553Z,26.92
2023-05-14T07:50:50.542Z,26.88
2023-05-14T07:51:50.573Z,26.89
2023-05-14T07:52:50.544Z,26.85
2023-05-14T07:53:50.552Z,26.89
2023-05-14T07:54:50.818Z,26.88
2023-05-14T07:55:50.548Z,26.95
2023-05-14T07:56:50.560Z,26.88
2023-05-14T07:57:50.557Z,26.91
2023-05-14T07:58:50.546Z,26.91
2023-05-14T07:59:50.548Z,26.92
2023-05-14T08:00:50.540Z,26.85
2023-05-14T08:01:50.567Z,26.94
2023-05-14T08:02:50.667Z,26.88
2023-05-14T08:03:50.647Z,26.91
2023-05-14T08:04:50.540Z,26.89
2023-05-14T08:05:50.557Z,26.85
2023-05-14T08:06:50.548Z,26.91
2023-05-14T08:07:50.588Z,26.89
2023-05-14T08:08:50.542Z,26.89
2023-05-14T08:09:50.548Z,26.92
2023-05-14T08:10:50.555Z,26.85
2023-05-14T08:11:50.547Z,26.89
2023-05-14T08:12:50.549Z,26.88
2023-05-14T08:13:50.552Z,26.89
2023-05-14T08:14:50.542Z,26.88
2023-05-14T08:15:50.556Z,26.91
2023-05-14T08:16:50.576Z,26.89
2023-05-14T08:17:50.560Z,26.91
2023-05-14T08:18:50.606Z,26.89
2023-05-14T08:19:50.549Z,26.92
2023-05-14T08:20:50.681Z,26.81
2023-05-14T08:21:50.552Z,26.88
2023-05-14T08:22:50.546Z,26.92
2023-05-14T08:23:50.582Z,26.92
2023-05-14T08:24:50.546Z,26.92
2023-05-14T08:25:50.549Z,26.92
2023-05-14T08:26:50.544Z,26.89
2023-05-14T08:27:50.549Z,26.89
2023-05-14T08:28:50.552Z,26.91
2023-05-14T08:29:50.554Z,26.94
2023-05-14T08:30:50.570Z,26.92
2023-05-14T08:31:50.553Z,26.88
2023-05-14T08:32:50.580Z,26.88
2023-05-14T08:33:50.551Z,26.92
2023-05-14T08:34:50.550Z,26.91
2023-05-14T08:35:50.550Z,26.92
2023-05-14T08:36:50.545Z,26.88
2023-05-14T08:37:50.557Z,26.91
2023-05-14T08:38:50.543Z,26.89
2023-05-14T08:39:50.581Z,26.89
2023-05-14T08:40:50.544Z,26.88
2023-05-14T08:41:50.553Z,26.89
2023-05-14T08:42:50.545Z,26.88
2023-05-14T08:43:50.545Z,26.94
2023-05-14T08:44:50.540Z,26.88
2023-05-14T08:45:50.549Z,26.95
2023-05-14T08:46:50.548Z,26.91
2023-05-14T08:47:50.771Z,26.89
2023-05-14T08:48:50.601Z,26.91
2023-05-14T08:49:50.553Z,26.92
2023-05-14T08:50:50.547Z,26.97
2023-05-14T08:51:50.547Z,26.95
2023-05-14T08:52:50.552Z,26.95
2023-05-14T08:53:50.555Z,26.92
2023-05-14T08:54:50.541Z,26.94
2023-05-14T08:55:50.698Z,26.92
2023-05-14T08:56:51.865Z,26.88
2023-05-14T08:57:50.545Z,26.94
2023-05-14T08:58:50.535Z,26.97
2023-05-14T08:59:50.542Z,26.92
2023-05-14T09:00:50.535Z,27.00
2023-05-14T09:01:50.615Z,26.92
2023-05-14T09:02:50.566Z,26.97
2023-05-14T09:03:50.568Z,27.00
2023-05-14T09:04:50.536Z,26.94
2023-05-14T09:05:50.549Z,26.95
2023-05-14T09:06:50.553Z,26.94
2023-05-14T09:07:50.548Z,27.00
2023-05-14T09:08:50.536Z,26.92
2023-05-14T09:09:50.541Z,26.97
2023-05-14T09:10:50.532Z,26.91
2023-05-14T09:11:50.567Z,26.97
2023-05-14T09:12:50.538Z,27.00
2023-05-14T09:13:50.539Z,26.94
2023-05-14T09:14:50.576Z,26.94
2023-05-14T09:15:50.558Z,26.94
2023-05-14T09:16:50.621Z,26.91
2023-05-14T09:17:50.583Z,26.92
2023-05-14T09:18:50.569Z,26.99
2023-05-14T09:19:50.539Z,26.91
2023-05-14T09:20:50.531Z,26.89
2023-05-14T09:21:50.541Z,26.94
2023-05-14T09:22:50.541Z,26.95
2023-05-14T09:23:50.538Z,27.00
2023-05-14T09:24:50.531Z,27.00
2023-05-14T09:25:50.542Z,26.92
2023-05-14T09:26:50.531Z,27.02
2023-05-14T09:27:50.567Z,26.94
2023-05-14T09:28:50.530Z,26.89
2023-05-14T09:29:50.537Z,26.87
2023-05-14T09:30:50.530Z,26.94
2023-05-14T09:31:50.642Z,26.92
2023-05-14T09:32:50.634Z,26.94
2023-05-14T09:33:50.541Z,26.97
2023-05-14T09:34:50.549Z,26.94
2023-05-14T09:35:50.552Z,26.87
2023-05-14T09:36:50.531Z,26.97
2023-05-14T09:37:50.540Z,26.94
2023-05-14T09:38:50.528Z,26.89
2023-05-14T09:39:50.542Z,26.95
2023-05-14T09:40:50.531Z,26.94
2023-05-14T09:41:50.537Z,26.89
2023-05-14T09:42:50.530Z,26.97
2023-05-14T09:43:50.557Z,26.92
2023-05-14T09:44:50.543Z,26.95
2023-05-14T09:45:50.538Z,26.92
2023-05-14T09:46:50.582Z,26.95
2023-05-14T09:47:50.601Z,26.99
2023-05-14T09:48:50.531Z,26.91
2023-05-14T09:49:50.537Z,26.91
2023-05-14T09:50:50.528Z,26.99
2023-05-14T09:51:50.538Z,26.97
2023-05-14T09:52:50.529Z,26.95
2023-05-14T09:53:50.537Z,26.88
2023-05-14T09:54:50.529Z,26.95
2023-05-14T09:55:50.532Z,26.92
2023-05-14T09:56:50.535Z,26.94
2023-05-14T09:57:50.534Z,26.89
2023-05-14T09:58:50.530Z,26.97
2023-05-14T09:59:50.650Z,26.92
2023-05-14T10:00:50.537Z,26.99
2023-05-14T10:01:50.536Z,26.94
2023-05-14T10:02:50.550Z,26.92
2023-05-14T10:03:50.536Z,26.94
2023-05-14T10:04:50.575Z,26.99
2023-05-14T10:05:50.534Z,26.95
2023-05-14T10:06:50.535Z,26.94
2023-05-14T10:07:50.529Z,26.94
2023-05-14T10:08:50.531Z,26.99
2023-05-14T10:09:50.525Z,26.94
2023-05-14T10:10:50.537Z,26.95
2023-05-14T10:11:50.533Z,26.94
2023-05-14T10:12:50.535Z,26.97
2023-05-14T10:13:50.530Z,26.94
2023-05-14T10:14:50.534Z,26.89
2023-05-14T10:15:50.548Z,27.00
2023-05-14T10:16:50.723Z,26.95
2023-05-14T10:17:50.589Z,26.95
2023-05-14T10:18:50.612Z,26.94
2023-05-14T10:19:50.524Z,26.92
2023-05-14T10:20:50.532Z,26.94
2023-05-14T10:21:50.525Z,26.94
2023-05-14T10:22:50.530Z,26.99
2023-05-14T10:23:50.523Z,26.99
2023-05-14T10:24:50.535Z,26.92
2023-05-14T10:25:50.529Z,26.89
2023-05-14T10:26:50.535Z,26.89
2023-05-14T10:27:50.528Z,26.89
2023-05-14T10:28:50.530Z,26.95
2023-05-14T10:29:50.525Z,26.92
2023-05-14T10:30:50.574Z,26.97
2023-05-14T10:31:50.623Z,26.95
2023-05-14T10:32:50.600Z,26.92
2023-05-14T10:33:50.605Z,26.95
2023-05-14T10:34:50.529Z,26.94
2023-05-14T10:35:50.522Z,26.94
2023-05-14T10:36:50.531Z,26.95
2023-05-14T10:37:50.524Z,26.91
2023-05-14T10:38:50.531Z,26.92
2023-05-14T10:39:50.528Z,27.00
2023-05-14T10:40:52.820Z,26.92
2023-05-14T10:41:50.527Z,26.94
2023-05-14T10:42:50.532Z,26.95
2023-05-14T10:43:50.526Z,26.99
2023-05-14T10:44:50.529Z,26.91
2023-05-14T10:45:50.520Z,26.94
2023-05-14T10:46:50.592Z,26.94
2023-05-14T10:47:50.611Z,26.97
2023-05-14T10:48:50.534Z,26.89
2023-05-14T10:49:50.525Z,26.92
2023-05-14T10:50:50.571Z,26.94
2023-05-14T10:51:50.524Z,26.95
2023-05-14T10:52:50.534Z,26.92
2023-05-14T10:53:50.523Z,26.89
2023-05-14T10:54:50.540Z,26.94
2023-05-14T10:55:50.520Z,26.97
2023-05-14T10:56:50.527Z,26.89
2023-05-14T10:57:50.524Z,26.92
2023-05-14T10:58:50.530Z,26.94
2023-05-14T10:59:50.530Z,27.00
2023-05-14T11:00:50.529Z,26.94
2023-05-14T11:01:50.567Z,26.94
2023-05-14T11:02:50.571Z,26.97
2023-05-14T11:03:50.624Z,26.89
2023-05-14T11:04:50.530Z,26.95
2023-05-14T11:05:50.527Z,26.92
2023-05-14T11:06:50.534Z,26.97
2023-05-14T11:07:50.521Z,26.95
2023-05-14T11:08:50.534Z,26.94
2023-05-14T11:09:50.524Z,26.94
2023-05-14T11:10:50.541Z,26.94
2023-05-14T11:11:50.523Z,27.03
2023-05-14T11:12:50.532Z,26.97
2023-05-14T11:13:50.530Z,26.94
2023-05-14T11:14:50.532Z,26.97
2023-05-14T11:15:50.524Z,26.95
2023-05-14T11:16:50.601Z,26.97
2023-05-14T11:17:50.669Z,27.00
2023-05-14T11:18:50.590Z,26.94
2023-05-14T11:19:51.224Z,26.97
2023-05-14T11:20:50.526Z,26.94
2023-05-14T11:21:50.547Z,27.02
2023-05-14T11:22:50.533Z,26.99
2023-05-14T11:23:50.524Z,26.97
2023-05-14T11:24:50.539Z,26.92
2023-05-14T11:25:50.562Z,26.89
2023-05-14T11:26:50.528Z,27.00
2023-05-14T11:27:50.521Z,26.92
2023-05-14T11:28:50.530Z,26.97
2023-05-14T11:29:50.522Z,26.99
2023-05-14T11:30:50.533Z,26.91
2023-05-14T11:31:50.566Z,26.99
2023-05-14T11:32:50.582Z,26.94
2023-05-14T11:33:50.519Z,26.94
2023-05-14T11:34:50.527Z,26.99
2023-05-14T11:35:50.547Z,27.07
2023-05-14T11:36:50.527Z,26.99
2023-05-14T11:37:50.532Z,26.99
2023-05-14T11:38:50.547Z,26.95
2023-05-14T11:39:50.524Z,26.92
2023-05-14T11:40:50.527Z,26.92
2023-05-14T11:41:50.520Z,26.94
2023-05-14T11:42:50.529Z,26.92
2023-05-14T11:43:50.533Z,27.02
2023-05-14T11:44:50.532Z,26.94
2023-05-14T11:45:50.551Z,26.87
2023-05-14T11:46:50.535Z,26.97
2023-05-14T11:47:50.575Z,26.92
2023-05-14T11:48:50.531Z,26.99
2023-05-14T11:49:50.519Z,26.95
2023-05-14T11:50:50.526Z,26.94
2023-05-14T11:51:50.542Z,26.99
2023-05-14T11:52:50.528Z,26.99
2023-05-14T11:53:50.519Z,26.92
2023-05-14T11:54:50.524Z,26.95
2023-05-14T11:55:50.530Z,26.94
2023-05-14T11:56:50.534Z,26.95
2023-05-14T11:57:50.518Z,26.95
2023-05-14T11:58:50.531Z,27.00
2023-05-14T11:59:50.515Z,26.92
2023-05-14T12:00:50.526Z,26.95
2023-05-14T12:01:50.852Z,26.92
2023-05-14T12:02:50.725Z,26.89
2023-05-14T12:03:50.564Z,26.88
2023-05-14T12:04:50.621Z,27.00
2023-05-14T12:05:50.515Z,27.03
2023-05-14T12:06:50.524Z,26.88
2023-05-14T12:07:50.537Z,26.95
2023-05-14T12:08:50.524Z,26.89
2023-05-14T12:09:50.531Z,26.95
2023-05-14T12:10:50.520Z,26.95
2023-05-14T12:11:50.521Z,26.92
2023-05-14T12:12:50.518Z,26.88
2023-05-14T12:13:50.521Z,26.94
2023-05-14T12:14:50.648Z,26.89
2023-05-14T12:15:50.564Z,26.94
2023-05-14T12:16:50.525Z,26.95
2023-05-14T12:17:50.562Z,26.99
2023-05-14T12:18:50.656Z,27.00
2023-05-14T12:19:50.526Z,26.97
2023-05-14T12:20:50.520Z,27.00
2023-05-14T12:21:50.512Z,26.95
2023-05-14T12:22:50.521Z,26.92
2023-05-14T12:23:50.538Z,26.99
2023-05-14T12:24:50.519Z,26.94
2023-05-14T12:25:50.512Z,26.92
2023-05-14T12:26:50.528Z,26.97
2023-05-14T12:27:50.524Z,26.95
2023-05-14T12:28:50.519Z,26.94
2023-05-14T12:29:50.522Z,26.94
2023-05-14T12:30:50.527Z,26.89
2023-05-14T12:31:50.659Z,27.00
2023-05-14T12:32:50.557Z,26.94
2023-05-14T12:33:50.513Z,26.89
2023-05-14T12:34:50.519Z,26.99
2023-05-14T12:35:50.524Z,26.89
2023-05-14T12:36:50.520Z,26.95
2023-05-14T12:37:50.513Z,26.99
2023-05-14T12:38:50.518Z,26.95
2023-05-14T12:39:50.540Z,26.97
2023-05-14T12:40:50.523Z,27.00
2023-05-14T12:41:50.512Z,26.94
2023-05-14T12:42:50.521Z,26.89
2023-05-14T12:43:50.521Z,26.99
2023-05-14T12:44:50.519Z,26.95
2023-05-14T12:45:50.521Z,26.99
2023-05-14T12:46:50.590Z,26.97
2023-05-14T12:47:50.529Z,26.97
2023-05-14T12:48:53.064Z,26.94
2023-05-14T12:49:50.513Z,27.02
2023-05-14T12:50:50.518Z,26.99
2023-05-14T12:51:56.743Z,26.94
2023-05-14T12:52:50.518Z,26.99